createdAt,value
2022-09-16T00:00:11.405Z,97885.47
2022-09-16T00:02:40.090Z,97889.59
2022-09-16T00:05:06.529Z,97901.44
2022-09-16T00:07:32.755Z,97894.88
2022-09-16T00:09:59.451Z,97897.16
2022-09-16T00:12:25.720Z,97895.69
2022-09-16T00:14:51.851Z,97894.66
2022-09-16T00:17:18.060Z,97892.59
2022-09-16T00:19:44.627Z,97899.50
2022-09-16T00:22:11.048Z,97889.69
2022-09-16T00:24:37.256Z,97893.16
2022-09-16T00:27:03.768Z,97897.53
2022-09-16T00:29:30.102Z,97890.16
2022-09-16T00:31:56.450Z,97897.50
2022-09-16T00:34:22.674Z,97894.19
2022-09-16T00:36:48.782Z,97897.72
2022-09-16T00:39:14.943Z,97888.50
2022-09-16T00:41:41.128Z,97881.06
2022-09-16T00:44:07.381Z,97886.84
2022-09-16T00:46:33.807Z,97893.50
2022-09-16T00:49:00.125Z,97897.19
2022-09-16T00:51:26.276Z,97891.38
2022-09-16T00:53:54.889Z,97890.16
2022-09-16T00:56:21.093Z,97888.72
2022-09-16T00:58:47.184Z,97892.25
2022-09-16T01:01:13.429Z,97887.72
2022-09-16T01:03:39.566Z,97892.22
2022-09-16T01:06:05.703Z,97893.00
2022-09-16T01:08:31.930Z,97891.78
2022-09-16T01:10:58.048Z,97893.00
2022-09-16T01:13:24.223Z,97884.72
2022-09-16T01:15:50.430Z,97884.09
2022-09-16T01:18:16.610Z,97882.28
2022-09-16T01:20:42.762Z,97878.19
2022-09-16T01:23:09.285Z,97874.91
2022-09-16T01:25:35.410Z,97882.03
2022-09-16T01:28:01.515Z,97880.63
2022-09-16T01:30:29.740Z,97886.53
2022-09-16T01:32:55.838Z,97865.78
2022-09-16T01:35:21.932Z,97877.75
2022-09-16T01:37:48.047Z,97883.50
2022-09-16T01:40:14.255Z,97874.91
2022-09-16T01:42:40.383Z,97888.38
2022-09-16T01:45:06.578Z,97889.97
2022-09-16T01:47:32.676Z,97883.38
2022-09-16T01:49:58.871Z,97891.41
2022-09-16T01:52:25.066Z,97885.28
2022-09-16T01:54:51.243Z,97896.66
2022-09-16T01:57:19.510Z,97893.84
2022-09-16T01:59:45.995Z,97891.19
2022-09-16T02:02:12.256Z,97891.28
2022-09-16T02:04:38.427Z,97889.09
2022-09-16T02:07:04.628Z,97885.81
2022-09-16T02:09:30.845Z,97892.00
2022-09-16T02:11:56.985Z,97890.09
2022-09-16T02:14:23.223Z,97885.19
2022-09-16T02:16:49.354Z,97884.53
2022-09-16T02:19:15.558Z,97874.13
2022-09-16T02:21:45.674Z,97871.03
2022-09-16T02:24:12.266Z,97877.44
2022-09-16T02:26:38.424Z,97881.00
2022-09-16T02:29:04.692Z,97885.31
2022-09-16T02:31:30.837Z,97878.81
2022-09-16T02:33:56.982Z,97888.22
2022-09-16T02:36:24.453Z,97881.63
2022-09-16T02:38:50.602Z,97880.00
2022-09-16T02:41:16.811Z,97880.69
2022-09-16T02:43:42.978Z,97875.19
2022-09-16T02:46:09.195Z,97877.03
2022-09-16T02:48:35.436Z,97869.69
2022-09-16T02:51:01.655Z,97875.38
2022-09-16T02:53:27.843Z,97865.94
2022-09-16T02:55:53.972Z,97870.63
2022-09-16T02:58:20.224Z,97876.78
2022-09-16T03:00:46.347Z,97870.22
2022-09-16T03:03:12.586Z,97866.91
2022-09-16T03:05:38.742Z,97870.63
2022-09-16T03:08:04.860Z,97862.88
2022-09-16T03:10:30.988Z,97862.47
2022-09-16T03:12:57.127Z,97862.31
2022-09-16T03:15:23.244Z,97859.25
2022-09-16T03:17:49.349Z,97856.34
2022-09-16T03:20:15.470Z,97855.16
2022-09-16T03:22:41.601Z,97858.03
2022-09-16T03:25:07.712Z,97859.88
2022-09-16T03:27:34.225Z,97853.78
2022-09-16T03:30:00.335Z,97858.81
2022-09-16T03:32:26.443Z,97857.13
2022-09-16T03:34:52.582Z,97852.09
2022-09-16T03:37:18.699Z,97851.53
2022-09-16T03:39:44.882Z,97846.56
2022-09-16T03:42:11.038Z,97846.38
2022-09-16T03:44:37.132Z,97842.50
2022-09-16T03:47:03.306Z,97849.66
2022-09-16T03:49:29.430Z,97847.63
2022-09-16T03:51:55.577Z,97844.94
2022-09-16T03:54:21.747Z,97847.69
2022-09-16T03:56:47.863Z,97850.81
2022-09-16T03:59:13.998Z,97836.97
2022-09-16T04:01:40.163Z,97838.34
2022-09-16T04:04:06.380Z,97841.88
2022-09-16T04:06:32.678Z,97844.72
2022-09-16T04:08:58.805Z,97839.78
2022-09-16T04:11:24.936Z,97839.63
2022-09-16T04:13:51.107Z,97837.16
2022-09-16T04:16:17.230Z,97827.16
2022-09-16T04:18:43.845Z,97830.22
2022-09-16T04:21:09.975Z,97836.75
2022-09-16T04:23:36.097Z,97835.75
2022-09-16T04:26:02.236Z,97831.66
2022-09-16T04:28:28.334Z,97830.81
2022-09-16T04:30:54.493Z,97840.19
2022-09-16T04:33:21.273Z,97827.28
2022-09-16T04:35:47.503Z,97827.09
2022-09-16T04:38:13.703Z,97832.47
2022-09-16T04:40:39.860Z,97833.63
2022-09-16T04:43:06.006Z,97836.91
2022-09-16T04:45:32.123Z,97838.16
2022-09-16T04:47:58.298Z,97830.22
2022-09-16T04:50:24.401Z,97832.66
2022-09-16T04:52:50.585Z,97831.25
2022-09-16T04:55:16.730Z,97831.38
2022-09-16T04:57:42.866Z,97838.16
2022-09-16T05:00:09.081Z,97835.13
2022-09-16T05:02:35.229Z,97840.81
2022-09-16T05:05:01.309Z,97838.41
2022-09-16T05:07:27.447Z,97823.06
2022-09-16T05:09:53.986Z,97841.06
2022-09-16T05:12:20.188Z,97837.78
2022-09-16T05:14:48.757Z,97836.09
2022-09-16T05:17:33.192Z,97839.31
2022-09-16T05:20:01.131Z,97833.56
2022-09-16T05:22:27.329Z,97830.72
2022-09-16T05:24:53.423Z,97836.66
2022-09-16T05:27:19.501Z,97840.53
2022-09-16T05:29:45.648Z,97835.63
2022-09-16T05:32:11.738Z,97836.13
2022-09-16T05:34:37.834Z,97846.31
2022-09-16T05:37:04.422Z,97847.13
2022-09-16T05:39:30.654Z,97850.75
2022-09-16T05:41:56.929Z,97845.03
2022-09-16T05:44:23.042Z,97847.53
2022-09-16T05:46:49.520Z,97843.66
2022-09-16T05:49:15.648Z,97842.63
2022-09-16T05:51:41.770Z,97838.16
2022-09-16T05:54:08.170Z,97843.03
2022-09-16T05:56:34.277Z,97844.47
2022-09-16T05:59:00.553Z,97835.13
2022-09-16T06:01:26.704Z,97835.16
2022-09-16T06:03:55.105Z,97839.22
2022-09-16T06:06:21.428Z,97839.44
2022-09-16T06:08:47.507Z,97839.06
2022-09-16T06:11:13.664Z,97833.69
2022-09-16T06:13:39.768Z,97833.47
2022-09-16T06:16:05.875Z,97835.94
2022-09-16T06:18:32.034Z,97842.06
2022-09-16T06:20:58.155Z,97840.25
2022-09-16T06:23:24.259Z,97846.84
2022-09-16T06:25:50.350Z,97845.59
2022-09-16T06:28:16.770Z,97850.72
2022-09-16T06:30:42.915Z,97841.00
2022-09-16T06:33:09.032Z,97844.66
2022-09-16T06:35:35.153Z,97841.81
2022-09-16T06:38:01.258Z,97852.50
2022-09-16T06:40:27.431Z,97850.50
2022-09-16T06:42:57.201Z,97860.75
2022-09-16T06:45:26.142Z,97854.88
2022-09-16T06:47:52.241Z,97843.38
2022-09-16T06:50:18.365Z,97853.41
2022-09-16T06:52:44.462Z,97854.88
2022-09-16T06:55:10.551Z,97858.03
2022-09-16T06:57:36.699Z,97843.09
2022-09-16T07:00:03.043Z,97851.75
2022-09-16T07:02:29.232Z,97845.97
2022-09-16T07:04:55.458Z,97851.47
2022-09-16T07:07:21.557Z,97850.69
2022-09-16T07:09:47.901Z,97845.63
2022-09-16T07:12:18.912Z,97850.72
2022-09-16T07:14:45.770Z,97857.09
2022-09-16T07:17:11.927Z,97850.69
2022-09-16T07:19:38.052Z,97854.19
2022-09-16T07:22:04.151Z,97857.75
2022-09-16T07:24:30.239Z,97855.31
2022-09-16T07:26:56.329Z,97855.31
2022-09-16T07:29:22.421Z,97863.78
2022-09-16T07:31:48.527Z,97860.56
2022-09-16T07:34:14.660Z,97865.31
2022-09-16T07:36:40.755Z,97875.09
2022-09-16T07:39:06.850Z,97859.19
2022-09-16T07:41:32.974Z,97880.53
2022-09-16T07:43:59.082Z,97877.44
2022-09-16T07:46:25.187Z,97882.28
2022-09-16T07:48:51.303Z,97876.50
2022-09-16T07:51:17.404Z,97876.94
2022-09-16T07:53:43.509Z,97880.84
2022-09-16T07:56:09.641Z,97879.34
2022-09-16T07:58:35.727Z,97875.03
2022-09-16T08:03:48.013Z,97885.03
2022-09-16T08:06:14.194Z,97876.50
2022-09-16T08:08:40.286Z,97903.31
2022-09-16T08:11:06.616Z,97884.31
2022-09-16T08:13:32.792Z,97888.56
2022-09-16T08:15:58.914Z,97882.75
2022-09-16T08:18:25.345Z,97895.06
2022-09-16T08:20:51.446Z,97889.59
2022-09-16T08:23:17.660Z,97887.16
2022-09-16T08:25:43.771Z,97885.75
2022-09-16T08:28:09.866Z,97889.25
2022-09-16T08:30:35.979Z,97895.13
2022-09-16T08:33:02.119Z,97887.56
2022-09-16T08:35:28.229Z,97890.81
2022-09-16T08:37:54.341Z,97904.53
2022-09-16T08:42:47.693Z,97897.47
2022-09-16T08:45:13.859Z,97907.97
2022-09-16T08:47:40.018Z,97907.00
2022-09-16T08:50:06.138Z,97898.41
2022-09-16T08:52:32.283Z,97903.94
2022-09-16T08:54:58.519Z,97911.53
2022-09-16T08:57:24.615Z,97899.69
2022-09-16T08:59:51.097Z,97906.25
2022-09-16T09:02:17.656Z,97912.81
2022-09-16T09:04:44.070Z,97910.16
2022-09-16T09:07:10.219Z,97907.88
2022-09-16T09:09:36.353Z,97905.66
2022-09-16T09:12:02.508Z,97911.00
2022-09-16T09:14:28.687Z,97907.47
2022-09-16T09:16:54.920Z,97904.19
2022-09-16T09:19:21.158Z,97908.31
2022-09-16T09:21:47.236Z,97903.16
2022-09-16T09:24:13.553Z,97908.69
2022-09-16T09:26:39.680Z,97900.91
2022-09-16T09:29:05.781Z,97916.09
2022-09-16T09:31:31.975Z,97905.47
2022-09-16T09:33:58.139Z,97896.63
2022-09-16T09:36:24.465Z,97909.97
2022-09-16T09:38:50.598Z,97902.38
2022-09-16T09:41:16.688Z,97905.88
2022-09-16T09:43:42.996Z,97907.91
2022-09-16T09:46:09.123Z,97905.84
2022-09-16T09:48:35.269Z,97907.91
2022-09-16T09:51:01.408Z,97894.41
2022-09-16T09:53:27.510Z,97902.75
2022-09-16T09:55:53.624Z,97910.91
2022-09-16T09:58:19.744Z,97902.00
2022-09-16T10:00:45.938Z,97891.53
2022-09-16T10:03:12.332Z,97894.06
2022-09-16T10:05:38.620Z,97891.78
2022-09-16T10:08:04.748Z,97898.56
2022-09-16T10:10:30.849Z,97903.25
2022-09-16T10:12:56.941Z,97901.94
2022-09-16T10:15:23.068Z,97902.63
2022-09-16T10:17:49.163Z,97894.41
2022-09-16T10:20:15.287Z,97894.41
2022-09-16T10:22:41.471Z,97892.56
2022-09-16T10:25:07.571Z,97902.38
2022-09-16T10:27:33.672Z,97892.91
2022-09-16T10:29:59.787Z,97890.03
2022-09-16T10:32:26.086Z,97883.03
2022-09-16T10:34:52.205Z,97887.38
2022-09-16T10:37:18.334Z,97881.47
2022-09-16T10:39:44.430Z,97886.03
2022-09-16T10:42:10.530Z,97882.59
2022-09-16T10:44:36.650Z,97874.69
2022-09-16T10:47:02.768Z,97874.28
2022-09-16T10:49:28.926Z,97869.84
2022-09-16T10:51:55.035Z,97869.44
2022-09-16T10:54:21.129Z,97879.47
2022-09-16T10:56:47.221Z,97882.22
2022-09-16T10:59:13.383Z,97876.50
2022-09-16T11:01:42.873Z,97874.25
2022-09-16T11:04:10.520Z,97886.16
2022-09-16T11:06:36.641Z,97880.03
2022-09-16T11:09:02.782Z,97880.88
2022-09-16T11:11:29.001Z,97878.00
2022-09-16T11:13:55.122Z,97871.63
2022-09-16T11:16:21.252Z,97884.97
2022-09-16T11:18:50.795Z,97871.81
2022-09-16T11:21:19.093Z,97870.44
2022-09-16T11:23:47.295Z,97875.53
2022-09-16T11:26:13.418Z,97872.66
2022-09-16T11:28:40.033Z,97871.44
2022-09-16T11:31:06.176Z,97883.13
2022-09-16T11:33:32.283Z,97885.75
2022-09-16T11:35:58.539Z,97896.41
2022-09-16T11:38:24.661Z,97898.88
2022-09-16T11:40:50.751Z,97896.34
2022-09-16T11:43:16.860Z,97890.88
2022-09-16T11:45:42.972Z,97890.50
2022-09-16T11:48:09.105Z,97897.47
2022-09-16T11:50:35.209Z,97886.94
2022-09-16T11:53:04.932Z,97893.72
2022-09-16T11:55:31.620Z,97893.34
2022-09-16T11:57:58.039Z,97882.50
2022-09-16T12:00:24.131Z,97887.22
2022-09-16T12:02:50.286Z,97872.03
2022-09-16T12:05:16.461Z,97886.16
2022-09-16T12:07:42.631Z,97874.50
2022-09-16T12:10:08.740Z,97870.81
2022-09-16T12:12:34.854Z,97870.78
2022-09-16T12:15:04.846Z,97868.50
2022-09-16T12:17:31.850Z,97866.25
2022-09-16T12:19:57.957Z,97864.72
2022-09-16T12:22:24.078Z,97859.38
2022-09-16T12:24:50.188Z,97850.19
2022-09-16T12:27:16.337Z,97861.06
2022-09-16T12:29:42.442Z,97853.47
2022-09-16T12:32:08.533Z,97859.47
2022-09-16T12:34:34.664Z,97873.41
2022-09-16T12:37:00.746Z,97882.06
2022-09-16T12:39:26.831Z,97895.81
2022-09-16T12:41:52.932Z,97899.28
2022-09-16T12:44:33.550Z,97910.97
2022-09-16T12:47:00.305Z,97932.53
2022-09-16T12:49:26.406Z,97897.75
2022-09-16T12:51:52.520Z,97919.09
2022-09-16T12:54:18.634Z,97909.53
2022-09-16T12:56:44.729Z,97918.03
2022-09-16T12:59:10.829Z,97926.75
2022-09-16T13:01:37.161Z,97916.50
2022-09-16T13:04:03.500Z,97924.56
2022-09-16T13:06:29.828Z,97940.53
2022-09-16T13:08:56.187Z,97941.38
2022-09-16T13:12:24.123Z,97947.75
2022-09-16T13:14:10.402Z,97925.66
2022-09-16T13:16:36.668Z,97922.16
2022-09-16T13:19:02.954Z,97922.06
2022-09-16T13:21:29.347Z,97922.72
2022-09-16T13:23:55.549Z,97932.16
2022-09-16T13:26:21.786Z,97947.25
2022-09-16T13:28:48.010Z,97935.28
2022-09-16T13:31:14.278Z,97934.84
2022-09-16T13:33:40.530Z,97918.19
2022-09-16T13:36:07.137Z,97910.06
2022-09-16T13:38:33.302Z,97905.38
2022-09-16T13:40:59.414Z,97904.19
2022-09-16T13:43:25.601Z,97915.88
2022-09-16T13:45:51.752Z,97903.06
2022-09-16T13:48:17.875Z,97911.59
2022-09-16T13:50:43.964Z,97914.94
2022-09-16T13:53:10.085Z,97915.78
2022-09-16T13:55:36.293Z,97916.78
2022-09-16T13:58:02.670Z,97916.06
2022-09-16T14:00:32.448Z,97909.75
2022-09-16T14:03:01.753Z,97905.03
2022-09-16T14:05:27.924Z,97905.44
2022-09-16T14:07:54.060Z,97914.22
2022-09-16T14:10:20.204Z,97903.06
2022-09-16T14:12:46.337Z,97914.22
2022-09-16T14:15:12.666Z,97917.03
2022-09-16T14:17:38.764Z,97927.38
2022-09-16T14:20:04.958Z,97922.44
2022-09-16T14:22:31.112Z,97914.84
2022-09-16T14:25:06.507Z,97930.59
2022-09-16T14:27:39.028Z,97921.09
2022-09-16T14:30:05.199Z,97910.22
2022-09-16T14:32:31.327Z,97909.81
2022-09-16T14:34:57.449Z,97908.91
2022-09-16T14:37:23.551Z,97899.38
2022-09-16T14:39:54.484Z,97902.28
2022-09-16T14:42:21.290Z,97897.94
2022-09-16T14:44:47.404Z,97893.94
2022-09-16T14:47:21.917Z,97898.50
2022-09-16T14:49:55.731Z,97896.81
2022-09-16T14:52:21.871Z,97898.38
2022-09-16T14:54:47.981Z,97900.94
2022-09-16T14:57:14.124Z,97894.97
2022-09-16T14:59:40.230Z,97882.81
2022-09-16T15:02:06.334Z,97887.94
2022-09-16T15:04:32.928Z,97884.94
2022-09-16T15:07:03.533Z,97891.31
2022-09-16T15:09:30.028Z,97887.38
2022-09-16T15:11:56.138Z,97881.34
2022-09-16T15:14:22.236Z,97883.66
2022-09-16T15:16:48.376Z,97894.59
2022-09-16T15:19:14.487Z,97889.47
2022-09-16T15:21:40.602Z,97890.69
2022-09-16T15:24:06.688Z,97879.63
2022-09-16T15:26:32.796Z,97874.28
2022-09-16T15:28:59.120Z,97874.59
2022-09-16T15:31:25.315Z,97878.88
2022-09-16T15:33:51.559Z,97885.53
2022-09-16T15:36:17.740Z,97861.78
2022-09-16T15:38:44.804Z,97871.22
2022-09-16T15:41:11.099Z,97869.34
2022-09-16T15:43:37.186Z,97871.59
2022-09-16T15:46:03.390Z,97870.66
2022-09-16T15:48:29.843Z,97873.00
2022-09-16T15:50:55.937Z,97875.47
2022-09-16T15:53:22.083Z,97867.78
2022-09-16T15:55:48.191Z,97870.34
2022-09-16T15:58:14.285Z,97872.75
2022-09-16T16:00:40.373Z,97865.78
2022-09-16T16:03:06.478Z,97863.25
2022-09-16T16:05:32.579Z,97850.25
2022-09-16T16:07:58.660Z,97856.59
2022-09-16T16:10:24.762Z,97863.78
2022-09-16T16:12:50.879Z,97856.28
2022-09-16T16:15:16.993Z,97858.69
2022-09-16T16:17:43.097Z,97851.09
2022-09-16T16:20:09.194Z,97855.97
2022-09-16T16:22:35.420Z,97863.06
2022-09-16T16:25:01.543Z,97861.13
2022-09-16T16:27:27.643Z,97872.59
2022-09-16T16:29:53.811Z,97890.63
2022-09-16T16:32:19.939Z,97902.81
2022-09-16T16:34:46.033Z,97906.06
2022-09-16T16:37:28.020Z,97914.66
2022-09-16T16:39:58.330Z,97917.28
2022-09-16T16:42:24.519Z,97923.84
2022-09-16T16:44:50.629Z,97959.28
2022-09-16T16:47:16.765Z,97999.56
2022-09-16T16:49:42.858Z,97994.38
2022-09-16T16:52:08.948Z,97963.97
2022-09-16T16:54:35.062Z,97915.66
2022-09-16T16:57:01.165Z,97895.81
2022-09-16T16:59:27.300Z,97901.66
2022-09-16T17:01:53.476Z,97896.09
2022-09-16T17:04:19.585Z,97893.91
2022-09-16T17:06:45.682Z,97888.84
2022-09-16T17:09:15.688Z,97901.97
2022-09-16T17:11:42.090Z,97907.41
2022-09-16T17:14:08.302Z,97913.72
2022-09-16T17:16:34.409Z,97907.13
2022-09-16T17:19:00.501Z,97910.63
2022-09-16T17:21:26.614Z,97914.16
2022-09-16T17:23:52.730Z,97912.72
2022-09-16T17:26:18.827Z,97916.81
2022-09-16T17:28:44.914Z,97905.56
2022-09-16T17:31:11.138Z,97921.03
2022-09-16T17:33:37.283Z,97924.00
2022-09-16T17:36:03.414Z,97919.63
2022-09-16T17:38:29.534Z,97919.63
2022-09-16T17:40:55.663Z,97929.19
2022-09-16T17:43:21.773Z,97922.31
2022-09-16T17:45:47.921Z,97929.50
2022-09-16T17:48:14.043Z,97933.06
2022-09-16T17:50:40.140Z,97935.94
2022-09-16T17:53:06.328Z,97933.00
2022-09-16T17:55:32.446Z,97926.69
2022-09-16T17:57:58.558Z,97929.19
2022-09-16T18:00:24.669Z,97929.22
2022-09-16T18:02:50.802Z,97934.72
2022-09-16T18:05:16.999Z,97933.41
2022-09-16T18:07:43.195Z,97935.38
2022-09-16T18:10:09.286Z,97937.94
2022-09-16T18:12:35.364Z,97936.25
2022-09-16T18:15:01.477Z,97934.06
2022-09-16T18:17:27.582Z,97939.03
2022-09-16T18:19:53.686Z,97925.81
2022-09-16T18:22:19.788Z,97932.16
2022-09-16T18:24:45.951Z,97932.13
2022-09-16T18:27:12.091Z,97932.72
2022-09-16T18:29:38.206Z,97938.09
2022-09-16T18:32:04.287Z,97944.56
2022-09-16T18:34:33.497Z,97947.19
2022-09-16T18:36:59.920Z,97943.34
2022-09-16T18:39:26.016Z,97946.31
2022-09-16T18:41:52.104Z,97945.34
2022-09-16T18:44:18.204Z,97944.69
2022-09-16T18:46:44.342Z,97947.69
2022-09-16T18:49:10.464Z,97941.88
2022-09-16T18:51:36.588Z,97942.94
2022-09-16T18:54:02.692Z,97940.22
2022-09-16T18:56:28.794Z,97934.13
2022-09-16T18:59:19.749Z,97937.78
2022-09-16T19:01:41.222Z,97943.22
2022-09-16T19:04:07.609Z,97941.03
2022-09-16T19:06:33.742Z,97944.16
2022-09-16T19:08:59.840Z,97948.00
2022-09-16T19:11:25.946Z,97934.00
2022-09-16T19:13:52.049Z,97944.94
2022-09-16T19:16:18.153Z,97945.13
2022-09-16T19:18:44.253Z,97947.94
2022-09-16T19:21:10.345Z,97952.56
2022-09-16T19:23:36.560Z,97953.84
2022-09-16T19:26:02.687Z,97951.88
2022-09-16T19:28:28.784Z,97963.94
2022-09-16T19:30:54.883Z,97961.78
2022-09-16T19:33:21.002Z,97959.88
2022-09-16T19:35:47.096Z,97952.69
2022-09-16T19:38:13.182Z,97959.69
2022-09-16T19:40:39.372Z,97958.19
2022-09-16T19:43:05.472Z,97953.56
2022-09-16T19:45:31.602Z,97959.69
2022-09-16T19:47:57.722Z,97966.75
2022-09-16T19:50:23.804Z,97966.44
2022-09-16T19:52:52.334Z,97968.28
2022-09-16T19:55:18.499Z,97971.63
2022-09-16T19:57:44.657Z,97966.06
2022-09-16T20:00:10.746Z,97973.81
2022-09-16T20:02:36.939Z,97969.50
2022-09-16T20:05:04.991Z,97971.34
2022-09-16T20:07:34.436Z,97976.50
2022-09-16T20:10:00.571Z,97972.75
2022-09-16T20:12:26.732Z,97977.94
2022-09-16T20:14:52.834Z,97985.00
2022-09-16T20:17:18.990Z,97971.28
2022-09-16T20:19:45.270Z,97974.56
2022-09-16T20:22:11.654Z,97972.00
2022-09-16T20:24:37.769Z,97976.75
2022-09-16T20:27:03.851Z,97975.28
2022-09-16T20:29:29.946Z,97967.00
2022-09-16T20:31:56.131Z,97979.69
2022-09-16T20:34:22.283Z,97977.41
2022-09-16T20:36:48.364Z,97980.53
2022-09-16T20:39:14.498Z,97980.16
2022-09-16T20:41:40.593Z,97971.25
2022-09-16T20:44:06.681Z,97983.22
2022-09-16T20:46:32.795Z,97987.59
2022-09-16T20:48:58.895Z,97976.91
2022-09-16T20:51:25.001Z,97995.97
2022-09-16T20:53:51.134Z,98001.75
2022-09-16T20:56:17.225Z,97990.50
2022-09-16T20:58:43.326Z,97998.63
2022-09-16T21:01:09.549Z,97979.28
2022-09-16T21:03:35.700Z,97989.06
2022-09-16T21:06:01.793Z,97999.00
2022-09-16T21:08:33.231Z,98004.16
2022-09-16T21:11:00.122Z,97998.34
2022-09-16T21:13:26.224Z,98001.19
2022-09-16T21:15:52.344Z,98004.41
2022-09-16T21:18:18.462Z,98015.88
2022-09-16T21:20:44.545Z,98010.38
2022-09-16T21:23:10.663Z,97998.28
2022-09-16T21:25:36.753Z,98009.34
2022-09-16T21:28:02.887Z,98005.06
2022-09-16T21:30:29.097Z,98004.41
2022-09-16T21:32:55.201Z,97999.28
2022-09-16T21:35:21.305Z,97992.16
2022-09-16T21:40:31.331Z,98005.22
2022-09-16T21:42:57.553Z,98002.16
2022-09-16T21:45:23.647Z,98011.56
2022-09-16T21:47:49.746Z,98002.88
2022-09-16T21:50:15.854Z,98011.88
2022-09-16T21:52:41.936Z,98004.75
2022-09-16T21:55:08.052Z,98004.81
2022-09-16T21:57:34.154Z,97996.56
2022-09-16T22:00:00.286Z,97998.69
2022-09-16T22:02:29.102Z,97997.69
2022-09-16T22:04:55.419Z,98007.09
2022-09-16T22:07:21.521Z,98019.88
2022-09-16T22:09:47.606Z,98020.25
2022-09-16T22:12:13.719Z,98005.09
2022-09-16T22:14:39.820Z,98009.94
2022-09-16T22:17:05.944Z,98008.09
2022-09-16T22:19:32.042Z,98002.31
2022-09-16T22:21:58.143Z,98017.06
2022-09-16T22:24:24.250Z,98025.16
2022-09-16T22:26:50.365Z,98016.22
2022-09-16T22:29:16.478Z,98017.75
2022-09-16T22:31:42.602Z,98014.09
2022-09-16T22:34:08.753Z,98014.16
2022-09-16T22:36:34.851Z,98026.38
2022-09-16T22:39:01.031Z,98032.34
2022-09-16T22:41:27.178Z,98016.16
2022-09-16T22:43:53.282Z,98026.88
2022-09-16T22:46:19.459Z,98022.75
2022-09-16T22:48:45.648Z,98018.63
2022-09-16T22:51:11.739Z,98024.53
2022-09-16T22:53:37.845Z,98032.00
2022-09-16T22:56:03.969Z,98008.22
2022-09-16T22:58:30.048Z,98023.88
2022-09-16T23:00:56.152Z,98022.19
2022-09-16T23:03:22.263Z,98019.53
2022-09-16T23:05:48.366Z,98018.75
2022-09-16T23:08:14.533Z,98025.50
2022-09-16T23:10:40.662Z,98026.22
2022-09-16T23:13:06.762Z,98019.91
2022-09-16T23:15:32.861Z,98021.59
2022-09-16T23:17:59.267Z,98017.84
2022-09-16T23:20:25.353Z,98013.03
2022-09-16T23:22:51.446Z,98016.38
2022-09-16T23:25:17.592Z,98010.75
2022-09-16T23:27:43.700Z,98015.97
2022-09-16T23:30:09.806Z,98017.09
2022-09-16T23:32:35.954Z,98013.06
2022-09-16T23:35:02.078Z,98004.13
2022-09-16T23:37:28.190Z,98003.00
2022-09-16T23:39:54.411Z,98007.94
2022-09-16T23:42:20.622Z,98008.75
2022-09-16T23:44:46.718Z,98012.59
2022-09-16T23:47:12.923Z,98019.97
2022-09-16T23:49:39.021Z,97998.69
2022-09-16T23:52:05.130Z,97997.22
2022-09-16T23:54:31.287Z,97996.41
2022-09-16T23:56:57.428Z,97994.41
2022-09-16T23:59:23.566Z,97995.91
